Tiempo atmosférico en la estación meteorológica de Fuengirola, Málaga (3 m.)

Fecha
DESCASC
Temp. máxima en grados centígrados (hora)
DESCASC
Temp. mínima en grados centígrados (hora)
DESCASC
Temp. media en grados centígrados
DESCASC
Racha de viento máxima en m/sg (hora)
DESCASC
Velocidad máxima media en intervalos de 10 minutos(hora)
DESCASC
Precipitaciones diarias en mm
DESCASC
Precipitaciones de 00:00 a 06:00 en mm
DESCASC
Precipitaciones de 06:00 a 12:00 en mm
DESCASC
Precipitaciones de 12:00 a 18:00 en mm
DESCASC
Precipitaciones de 18:00 a 24:00 en mm
DESCASC
23-11-2017 18.1 (16:20) 10.9 (07:10) 14.5 4.17 (04:00) 2.5 (22:50) 0 0 0 0 0
22-11-2017 18.1 (16:30) 10.5 (08:00) 14.3 5 (15:00) 3.61 (15:00) 0 0 0 0 0
21-11-2017 18.6 (16:10) 10.9 (09:40) 14.8 5 (12:20) 3.33 (13:50) 0 0 0 0 0
20-11-2017 18.8 (15:50) 12.5 (08:20) 15.6 4.72 (15:30) 3.33 (14:50) 0 0 0 0 0
19-11-2017 18.5 (16:30) 13.3 (00:00) 15.9 5.83 (11:40) 3.89 (11:30) 0 0 0 0 0
18-11-2017 17.7 (17:10) 11.5 (00:00) 14.6 3.89 (05:20) 2.5 (12:30) 0 0 0 0 0
17-11-2017 18.6 (16:40) 11.8 (00:00) 15.2 4.17 (08:10) 2.78 (12:50) 0 0 0 0 0
16-11-2017 17.6 (15:50) 12.5 (00:00) 15.1 6.39 (13:20) 2.78 (05:50) 0 0 0 0 0
15-11-2017 19.2 (16:30) 14.3 (00:00) 16.8 10 (02:00) 7.78 (03:00) 0 0 0 0 0
14-11-2017 18.7 (15:50) 14.2 (00:00) 16.5 8.89 (23:40) 6.94 (23:40) 0 0 0 0 0
13-11-2017 24 (16:10) 17 (00:00) 20.5 11.39 (18:50) 4.44 (21:10) 0 0 0 0 0
12-11-2017 23.8 (17:30) 12.7 (00:00) 18.2 10 (23:10) 5.83 (12:10) 0 0 0 0 0
11-11-2017 21.1 (17:20) 12.3 (00:00) 16.7 8.33 (12:40) 5 (12:40) 0 0 0 0 0
10-11-2017 20.5 (16:50) 13.4 (00:00) 16.9 14.44 (08:30) 5.28 (08:30) 0 0 0 0 0
09-11-2017 19 (14:00) 15.2 (00:00) 17.1 6.67 (11:50) 4.72 (16:10) 0 0 0 0 0
08-11-2017 18.9 (17:40) 12.6 (00:00) 15.8 5.28 (15:40) 3.89 (15:30) 0 0 0 0 0
07-11-2017 19.3 (14:00) 13.2 (00:00) 16.2 5 (18:00) 2.78 (08:10) 0 0 0 0 0
06-11-2017 19.9 (01:00) 13.2 (00:00) 16.5 10.83 (00:20) 6.39 (09:20) 0 0 0 0 0
05-11-2017 23 (15:50) 16.6 (00:00) 19.8 12.22 (16:20) 5 (16:30) 0 0 0 0 0
04-11-2017 -- (--) -- (--) -- -- (--) -- (--) -- -- 4.1 0 0
03-11-2017 -- (--) -- (--) -- -- (--) -- (--) -- 0 0 0 --
02-11-2017 21.3 (13:10) 19.6 (05:00) 20.4 6.67 (01:30) 4.72 (01:30) 0 0 0 0 0
01-11-2017 21.8 (15:20) 19.6 (00:00) 20.7 6.67 (22:10) 3.89 (22:30) 0 0 0 0 0
31-10-2017 21.8 (14:50) 16.6 (00:00) 19.2 6.67 (10:20) 4.17 (10:10) 0 0 0 0 0
30-10-2017 21.6 (15:00) 15.9 (00:00) 18.8 3.89 (03:30) 2.5 (06:20) 0 0 0 0 0
29-10-2017 22.4 (15:00) 18 (00:00) 20.2 5 (04:10) 2.78 (04:10) 0 0 0 0 0
28-10-2017 21.6 (16:30) 14.8 (00:00) 18.2 6.67 (11:30) 4.44 (11:20) 0 0 0 0 0
27-10-2017 22.5 (18:00) 17.1 (00:00) 19.8 5.28 (00:20) 3.61 (02:20) 0 0 0 0 0
26-10-2017 22.9 (17:10) 17.2 (00:00) 20.1 5.28 (23:40) 3.61 (12:00) 0 0 0 0 0

Gráficas

Temp. máximas Temp. mínimas Temp. medias Precipitaciones Rachas de viento máximas Velocidades máximas media en intervalos de 10 minutos

Datos horarios

Fecha y hora oficial Temperatura (ºC) Velocidad del viento (km/h) Dirección del viento Racha (km/h) Dirección de racha Precipitación (mm) Presión (hPa) Tendencia (hPa) Humedad (%)
2017-11-24 23:00:00 14.4 5 Noroeste 8 Noroeste 0 1020 0.3 78
2017-11-24 22:00:00 15.1 4 Noroeste 6 Noroeste 0 1020 0.6 81
2017-11-24 21:00:00 16 2 Noroeste 5 Norte 0 1020.2 1 83
2017-11-24 20:00:00 16.6 0 Calma 5 Oeste 0 1019.7 0.7 83
2017-11-24 19:00:00 17.4 0 Calma 10 Sur 0 1019.4 0.5 89
2017-11-24 18:00:00 18.8 6 Sudoeste 9 Sur 0 1019.2 0.2 82
2017-11-24 17:00:00 19 4 Sudoeste 14 Sur 0 1019 -0.6 80
2017-11-24 16:00:00 18.7 9 Sur 29 Sudoeste 0 1018.9 -1.1 90
2017-11-24 15:00:00 17.9 11 Sudoeste 15 Sudoeste 0 1019 -1.8 92
2017-11-24 14:00:00 18.2 7 Sur 13 Sudoeste 0 1019.6 -1.4 93
2017-11-24 13:00:00 18 5 Sudoeste 8 Sur 0 1020 -0.9 92
2017-11-24 12:00:00 17.8 4 Sur 8 Sudoeste 0 1020.8 0.3 86
2017-11-24 11:00:00 16.5 3 Sudoeste 6 Noroeste 0 1021 1.1 79
2017-11-24 10:00:00 14.8 4 Noroeste 12 Noroeste 0 1020.9 1.2 75
2017-11-24 09:00:00 13.5 5 Oeste 10 Oeste 0 1020.5 0.9 82
2017-11-24 08:00:00 13.6 3 Noroeste 14 Noroeste 0 1019.9 0.4 84
2017-11-24 07:00:00 13.8 6 Noroeste 12 Oeste 0 1019.7 0 87
2017-11-24 06:00:00 13.8 8 Noroeste 13 Noroeste 0 1019.6 -0.3 92
2017-11-24 05:00:00 13.7 4 Noroeste 9 Noroeste 0 1019.5 -0.6 94
2017-11-24 04:00:00 13.5 5 Noroeste 10 Noroeste 0 1019.7 -0.7 96
2017-11-24 03:00:00 13.4 6 Noroeste 13 Oeste 0 1019.9 -0.7 98
2017-11-24 02:00:00 13.1 5 Noroeste 12 Oeste 0 1020.1 -0.4 99
2017-11-24 01:00:00 13.2 4 Noroeste 12 Oeste 0 1020.4 -0.3 99
2017-11-24 00:00:00 13.6 6 Noroeste 13 Oeste 0 1020.6 0.1 99
2017-11-23 23:00:00 14.2 8 Noroeste 15 Oeste 0 1020.5 0.4 98
2017-11-23 22:00:00 15.4 6 Noroeste 9 Noroeste 0 1020.7 0.9 96
2017-11-23 21:00:00 15.9 4 Noroeste 6 Noroeste 0 1020.5 1.2 96
2017-11-23 20:00:00 16.5 2 Norte 7 Norte 0 1020.1 1.1 96
2017-11-23 19:00:00 16.9 0 Calma 5 Sudeste 0 1019.8 0.9 95
2017-11-23 18:00:00 17.7 0 Calma 9 Sudoeste 0 1019.3 0.5 94
2017-11-23 17:00:00 18.1 6 Sur 10 Sudoeste 0 1019 -0.1 93
2017-11-23 16:00:00 17.9 6 Sur 10 Sudoeste 0 1018.9 -0.5 92
2017-11-23 15:00:00 17.8 4 Sur 10 Sur 0 1018.8 -1 91
2017-11-23 14:00:00 17.4 6 Sur 10 Sur 0 1019.1 -0.6 91
2017-11-23 13:00:00 17.2 6 Sur 9 Sur 0 1019.4 0.2 91
2017-11-23 12:00:00 16.3 5 Sudeste 8 Sudeste 0 1019.8 1.2 91
2017-11-23 11:00:00 14.9 3 Este 5 Este 0 1019.7 2 86
2017-11-23 10:00:00 12.7 3 Noroeste 8 Noroeste 0 1019.2 2.3 80
2017-11-23 09:00:00 11.4 5 Noroeste 9 Noroeste 0 1018.6 2.3 82
2017-11-23 08:00:00 11.1 4 Noroeste 9 Noroeste 0 1017.7 1.8 82
2017-11-23 07:00:00 11 7 Noroeste 10 Noroeste 0 1016.9 1 82
2017-11-23 06:00:00 11.2 5 Noroeste 11 Noroeste 0 1016.3 0.4 82
2017-11-23 05:00:00 11.7 6 Noroeste 11 Noroeste 0 1015.9 -0.1 84
2017-11-23 04:00:00 11.5 8 Noroeste 15 Oeste 0 1015.9 -0.4 84
2017-11-23 03:00:00 11.8 7 Noroeste 14 Oeste 0 1015.9 -0.1 84
2017-11-23 02:00:00 12.2 6 Noroeste 13 Noroeste 0 1016 -0.1 83
2017-11-23 01:00:00 12.7 5 Noroeste 14 Noroeste 0 1016.3 0.3 82
2017-11-23 00:00:00 12.7 6 Noroeste 10 Noroeste 0 1016 0.3 82
2017-11-22 23:00:00 13.1 6 Noroeste 12 Noroeste 0 1016.1 0.6 82
2017-11-22 22:00:00 13.8 6 Noroeste 8 Noroeste 0 1016 0.9 84
2017-11-22 21:00:00 14.5 0 Calma 8 Noroeste 0 1015.7 0.9 84
2017-11-22 20:00:00 15.4 4 Noroeste 10 Oeste 0 1015.5 0.7 86
2017-11-22 19:00:00 16.4 2 Oeste 8 Oeste 0 1015.1 0.3 85
2017-11-22 18:00:00 17.1 4 Oeste 12 Oeste 0 1014.8 -0.3 83
2017-11-22 17:00:00 17.4 5 Sudoeste 15 Sudoeste 0 1014.8 -0.9 84
2017-11-22 16:00:00 17.5 9 Sudoeste 17 Sudoeste 0 1014.8 -1.4 86
2017-11-22 15:00:00 17.2 13 Sudoeste 18 Sudoeste 0 1015.1 -1.9 87
2017-11-22 14:00:00 16.9 9 Sudoeste 14 Sudoeste 0 1015.7 -1.6 90
2017-11-22 13:00:00 16.7 9 Sur 14 Sur 0 1016.2 -0.8 91
2017-11-22 12:00:00 16.5 5 Sur 10 Sur 0 1017 0.3 89
2017-11-22 11:00:00 14.8 0 Calma 11 Noroeste 0 1017.3 1 73
2017-11-22 10:00:00 12.7 7 Noroeste 14 Oeste 0 1017 0.9 68
2017-11-22 09:00:00 11.3 9 Noroeste 14 Noroeste 0 1016.7 0.4 69
2017-11-22 08:00:00 10.5 7 Noroeste 15 Noroeste 0 1016.3 -0.1 73
2017-11-22 07:00:00 10.7 8 Noroeste 17 Noroeste 0 1016.1 -0.7 72
2017-11-22 06:00:00 11.1 9 Noroeste 17 Noroeste 0 1016.3 -1.2 71
2017-11-22 05:00:00 10.9 9 Noroeste 16 Noroeste 0 1016.4 -1.4 75
2017-11-22 04:00:00 11.1 8 Noroeste 14 Noroeste 0 1016.8 -1.8 79
2017-11-22 03:00:00 11.4 9 Noroeste 13 Noroeste 0 1017.5 -1.3 80
2017-11-22 02:00:00 11.3 9 Noroeste 13 Noroeste 0 1017.8 -1.2 80
2017-11-22 01:00:00 12.1 8 Noroeste 12 Oeste 0 1018.6 -0.4 80
2017-11-22 00:00:00 12.6 5 Noroeste 13 Noroeste 0 1018.8 -0.2 81
2017-11-21 23:00:00 13 8 Noroeste 13 Noroeste 0 1019 -0.2 84
2017-11-21 22:00:00 13.4 8 Oeste 14 Oeste 0 1019 0.1 86
2017-11-21 21:00:00 14.5 4 Noroeste 10 Noroeste 0 1019 0.2 88
2017-11-21 20:00:00 15.3 5 Noroeste 7 Norte 0 1019.2 0.4 89
2017-11-21 19:00:00 16.8 0 Calma 3 Sudoeste 0 1018.9 0 89
2017-11-21 18:00:00 17.8 2 Sur 16 Sudoeste 0 1018.8 -0.6 86
2017-11-21 17:00:00 18.3 4 Sudoeste 8 Sur 0 1018.8 -1.1 85
2017-11-21 16:00:00 18.5 5 Sur 9 Sudoeste 0 1018.9 -1.8 86
2017-11-21 15:00:00 16.8 5 Sur 14 Sudoeste 0 1019.4 -2.2 88
2017-11-21 14:00:00 16.6 12 Sudoeste 17 Sur 0 1019.9 -2.1 89
2017-11-21 13:00:00 16.5 9 Sudoeste 18 Sur 0 1020.7 -1.1 88
2017-11-21 12:00:00 16.4 4 Sur 6 Sur 0 1021.6 0 86
2017-11-21 11:00:00 15 3 Sur 8 Noroeste 0 1022 0.8 76
2017-11-21 10:00:00 12.5 5 Noroeste 14 Noroeste 0 1021.8 0.7 70
2017-11-21 09:00:00 11.9 9 Noroeste 14 Noroeste 0 1021.6 0.6 72
2017-11-21 08:00:00 11.4 9 Noroeste 15 Noroeste 0 1021.2 0.1 74
2017-11-21 07:00:00 11.8 9 Noroeste 16 Oeste 0 1021.1 -0.2 73
2017-11-21 06:00:00 11.5 8 Noroeste 13 Noroeste 0 1021 -0.6 76
2017-11-21 05:00:00 11.7 7 Noroeste 12 Noroeste 0 1021.1 -0.4 76
2017-11-21 04:00:00 11.7 6 Noroeste 12 Noroeste 0 1021.3 -0.5 80
2017-11-21 03:00:00 12 7 Noroeste 14 Noroeste 0 1021.6 -0.3 81
2017-11-21 02:00:00 12.4 7 Noroeste 14 Noroeste 0 1021.5 -0.3 85
2017-11-21 01:00:00 12.7 9 Noroeste 16 Noroeste 0 1021.8 0 85
2017-11-21 00:00:00 13.2 7 Noroeste 12 Noroeste 0 1021.9 -0.2 86
2017-11-20 23:00:00 13.7 5 Noroeste 10 Noroeste 0 1021.8 -0.2 86
2017-11-20 22:00:00 14.3 5 Noroeste 9 Noroeste 0 1021.8 0.3 87
2017-11-20 21:00:00 15 6 Noroeste 9 Noroeste 0 1022.1 0.7 87
2017-11-20 20:00:00 16.3 4 Noroeste 7 Noroeste 0 1022 0.7 87
2017-11-20 19:00:00 17.4 0 Calma 2 Sudeste 0 1021.5 0.3 89
2017-11-20 18:00:00 17.9 0 Calma 8 Sudeste 0 1021.4 0.1 86
2017-11-20 17:00:00 18.5 5 Sudeste 12 Sudeste 0 1021.3 -0.9 86
2017-11-20 16:00:00 18.6 9 Sudeste 17 Este 0 1021.2 -1.5 84
2017-11-20 15:00:00 18.4 11 Sudeste 15 Sudeste 0 1021.3 -1.9 84
2017-11-20 14:00:00 18 9 Sudeste 11 Sudeste 0 1022.2 -0.9 87
2017-11-20 13:00:00 17.6 8 Sudeste 11 Sudeste 0 1022.7 0 87
2017-11-20 12:00:00 17.5 9 Sudeste 12 Sudeste 0 1023.2 1.2 89
2017-11-20 11:00:00 16.6 2 Sudoeste 6 Oeste 0 1023.1 1.5 86
2017-11-20 10:00:00 14.4 4 Noroeste 16 Noroeste 0 1022.7 1.5 84
2017-11-20 09:00:00 13 8 Noroeste 15 Noroeste 0 1022 0.9 89
2017-11-20 08:00:00 12.7 8 Noroeste 15 Noroeste 0 1021.6 0.7 92
2017-11-20 07:00:00 12.9 6 Noroeste 15 Noroeste 0 1021.2 0 92
2017-11-20 06:00:00 12.9 6 Noroeste 11 Noroeste 0 1021.1 -0.1 92
2017-11-20 05:00:00 13 6 Noroeste 11 Noroeste 0 1020.9 -0.4 92
2017-11-20 04:00:00 13.2 6 Noroeste 10 Noroeste 0 1021.2 -0.5 92
2017-11-20 03:00:00 13.5 6 Noroeste 11 Noroeste 0 1021.2 -0.3 91
2017-11-20 02:00:00 14 8 Noroeste 12 Noroeste 0 1021.3 -0.2 90
2017-11-20 01:00:00 14 6 Noroeste 11 Noroeste 0 1021.7 0.4 90
2017-11-20 00:00:00 14.6 5 Noroeste 12 Noroeste 0 1021.5 0.7 90
2017-11-19 23:00:00 14.7 5 Noroeste 9 Noroeste 0 1021.5 0.9 90
2017-11-19 22:00:00 15.2 4 Noroeste 7 Noroeste 0 1021.3 1.1 90
2017-11-19 21:00:00 16 4 Noroeste 12 Este 0 1020.8 1 89
2017-11-19 20:00:00 17 7 Este 12 Nordeste 0 1020.6 0.9 91
2017-11-19 19:00:00 17.2 9 Este 13 Nordeste 0 1020.2 0.6 90
2017-11-19 18:00:00 17.6 10 Este 15 Este 0 1019.8 0.1 89
2017-11-19 17:00:00 18.3 9 Este 12 Este 0 1019.7 -0.6 85
2017-11-19 16:00:00 18.4 9 Este 13 Sudeste 0 1019.6 -1.2 84
2017-11-19 15:00:00 18.3 9 Este 17 Sudeste 0 1019.7 -1.6 84
2017-11-19 14:00:00 18.1 11 Este 18 Nordeste 0 1020.3 -1.1 84
2017-11-19 13:00:00 18 13 Este 19 Este 0 1020.8 0 84
2017-11-19 12:00:00 17.4 13 Este 21 Este 0 1021.3 1 87
2017-11-19 11:00:00 17 13 Este 18 Este 0 1021.4 1.9 88
2017-11-19 10:00:00 16.3 10 Este 19 Nordeste 0 1020.8 1.8 92
2017-11-19 09:00:00 13.7 5 Noroeste 10 Noroeste 0 1020.3 1.6 92
2017-11-19 08:00:00 13.6 6 Noroeste 9 Noroeste 0 1019.5 0.6 92
2017-11-19 07:00:00 13.5 6 Noroeste 11 Noroeste 0 1019 -0.1 92
2017-11-19 06:00:00 13.6 5 Noroeste 10 Noroeste 0 1018.7 -0.5 91
2017-11-19 05:00:00 14 5 Noroeste 10 Noroeste 0 1018.9 -0.2 90
2017-11-19 04:00:00 13.9 6 Noroeste 10 Noroeste 0 1019.1 -0.2 90
2017-11-19 03:00:00 13.8 5 Noroeste 11 Noroeste 0 1019.2 0 90
2017-11-19 02:00:00 13.5 4 Noroeste 11 Noroeste 0 1019.1 0.1 89
2017-11-19 01:00:00 13.5 5 Noroeste 11 Noroeste 0 1019.3 0.3 89
2017-11-19 00:00:00 13.5 7 Noroeste 11 Noroeste 0 1019.2 0.4 90
2017-11-18 23:00:00 13.9 5 Noroeste 10 Oeste 0 1019 0.5 90
2017-11-18 22:00:00 14.5 5 Noroeste 8 Noroeste 0 1019 0.9 90
2017-11-18 21:00:00 15.4 3 Noroeste 7 Noroeste 0 1018.8 0.9 89
2017-11-18 20:00:00 16 4 Norte 13 Nordeste 0 1018.5 0.7 90
2017-11-18 19:00:00 16.7 9 Este 13 Este 0 1018.1 0.5 90
2017-11-18 18:00:00 17.3 7 Este 13 Este 0 1017.9 0 87
2017-11-18 17:00:00 17.6 7 Este 12 Sudeste 0 1017.8 -0.8 86
2017-11-18 16:00:00 17.5 6 Sudeste 11 Sudeste 0 1017.6 -1.5 86
2017-11-18 15:00:00 17.5 6 Sudeste 11 Sudeste 0 1017.9 -1.6 86
2017-11-18 14:00:00 17.4 6 Sudeste 12 Sudeste 0 1018.6 -1 86
2017-11-18 13:00:00 17.4 8 Sudeste 13 Sudeste 0 1019.1 -0.5 87
2017-11-18 12:00:00 16.4 5 Este 9 Sudeste 0 1019.5 0.4 88
2017-11-18 11:00:00 15.4 4 Este 10 Este 0 1019.6 0.8 91
2017-11-18 10:00:00 14 3 Nordeste 9 Nordeste 0 1019.6 1 92
2017-11-18 09:00:00 11.9 6 Noroeste 12 Oeste 0 1019.1 0.7 92
2017-11-18 08:00:00 11.5 6 Noroeste 13 Noroeste 0 1018.8 0.5 92
2017-11-18 07:00:00 11.7 8 Noroeste 14 Oeste 0 1018.6 -0.1 91
2017-11-18 06:00:00 11.7 8 Noroeste 14 Noroeste 0 1018.4 -0.4 90
2017-11-18 05:00:00 12 5 Noroeste 13 Noroeste 0 1018.3 -0.5 89
2017-11-18 04:00:00 12.2 8 Noroeste 12 Noroeste 0 1018.7 -0.5 89
2017-11-18 03:00:00 12.4 8 Noroeste 14 Noroeste 0 1018.8 -0.4 89
2017-11-18 02:00:00 12.9 5 Noroeste 13 Noroeste 0 1018.8 -0.5 91
2017-11-18 01:00:00 13.1 5 Noroeste 9 Noroeste 0 1019.2 0.1 91
2017-11-18 00:00:00 13.6 5 Noroeste 8 Noroeste 0 1019.2 0.3 91
2017-11-17 23:00:00 14.3 4 Noroeste 10 Oeste 0 1019.3 0.6 90
2017-11-17 22:00:00 14.8 6 Noroeste 9 Noroeste 0 1019.1 0.6 90
2017-11-17 21:00:00 15.1 5 Noroeste 9 Oeste 0 1018.9 1 88
2017-11-17 20:00:00 15.8 4 Noroeste 6 Noroeste 0 1018.7 0.8 87
2017-11-17 19:00:00 16.5 2 Este 5 Sudeste 0 1018.5 0.5 86
2017-11-17 18:00:00 17.4 4 Sudeste 7 Sur 0 1017.9 -0.6 84
2017-11-17 17:00:00 18.4 6 Sur 9 Sudeste 0 1017.9 -1.2 82
2017-11-17 16:00:00 18.2 6 Sudeste 12 Sudeste 0 1018 -1.7 83
2017-11-17 15:00:00 17.7 8 Sudeste 12 Sudeste 0 1018.5 -1.8 85
2017-11-17 14:00:00 17.3 9 Sudeste 14 Este 0 1019.1 -1.5 86
2017-11-17 13:00:00 16.9 9 Sudeste 12 Sudeste 0 1019.7 -0.7 87
2017-11-17 12:00:00 16.4 8 Este 11 Sudeste 0 1020.3 0.2 89
2017-11-17 11:00:00 15.5 5 Este 9 Este 0 1020.6 0.9 91
2017-11-17 10:00:00 13.9 3 Noroeste 10 Noroeste 0 1020.4 1.3 91
2017-11-17 09:00:00 12.5 8 Noroeste 15 Oeste 0 1020.1 0.9 93
2017-11-17 08:00:00 12 6 Noroeste 12 Noroeste 0 1019.7 0.7 93
2017-11-17 07:00:00 12 6 Noroeste 12 Noroeste 0 1019.1 -0.3 93
2017-11-17 06:00:00 12.5 8 Noroeste 11 Noroeste 0 1019.2 -0.4 93
2017-11-17 05:00:00 12.7 7 Noroeste 13 Noroeste 0 1019 -0.7 94
2017-11-17 04:00:00 12.8 9 Noroeste 13 Noroeste 0 1019.4 -0.6 94
2017-11-17 03:00:00 13.2 5 Noroeste 10 Oeste 0 1019.6 -0.4 94
2017-11-17 02:00:00 13.5 4 Noroeste 12 Noroeste 0 1019.7 -0.2 93
2017-11-17 01:00:00 13.5 4 Noroeste 10 Oeste 0 1020 0.4 92
2017-11-17 00:00:00 14 4 Noroeste 8 Noroeste 0 1020 0.6 92
2017-11-16 23:00:00 14.4 5 Noroeste 10 Noroeste 0 1019.9 0.9 91
2017-11-16 22:00:00 14.9 5 Noroeste 9 Noroeste 0 1019.6 1.1 90
2017-11-16 21:00:00 15.5 5 Noroeste 9 Noroeste 0 1019.4 1.3 89
2017-11-16 20:00:00 16 3 Norte 4 Norte 0 1019 1.2 88
2017-11-16 19:00:00 16.8 0 Calma 9 Sudoeste 0 1018.5 0.7 88
2017-11-16 18:00:00 17.2 4 Sudoeste 14 Sur 0 1018.1 0.1 88
2017-11-16 17:00:00 17.5 9 Sudoeste 14 Sudoeste 0 1017.8 -0.7 87
2017-11-16 16:00:00 17.4 8 Sur 12 Sur 0 1017.8 -1.3 87
2017-11-16 15:00:00 17.3 8 Sur 12 Sudoeste 0 1018 -1.9 87
2017-11-16 14:00:00 17.2 7 Sur 23 Sur 0 1018.5 -1.4 87
2017-11-16 13:00:00 17.2 8 Sur 12 Sur 0 1019.1 -0.5 87
2017-11-16 12:00:00 16.9 8 Sur 11 Sur 0 1019.9 0.9 87
2017-11-16 11:00:00 16.1 4 Sur 7 Sur 0 1019.9 1.4 88
2017-11-16 10:00:00 14.2 4 Noroeste 13 Oeste 0 1019.6 1.7 91
2017-11-16 09:00:00 12.7 8 Noroeste 15 Oeste 0 1019 1 93
2017-11-16 08:00:00 12.6 8 Noroeste 15 Oeste 0 1018.5 0.6 92
2017-11-16 07:00:00 12.8 7 Noroeste 15 Oeste 0 1017.9 -0.4 93
2017-11-16 06:00:00 12.8 8 Noroeste 18 Oeste 0 1018 -0.3 92
2017-11-16 05:00:00 13 8 Noroeste 14 Noroeste 0 1017.9 -0.3 92
2017-11-16 04:00:00 13.2 6 Noroeste 14 Oeste 0 1018.3 -0.1 91
2017-11-16 03:00:00 13.3 6 Noroeste 13 Oeste 0 1018.3 -0.2 90
2017-11-16 02:00:00 13.6 8 Noroeste 13 Oeste 0 1018.2 -0.5 89
2017-11-16 01:00:00 13.8 6 Noroeste 11 Oeste 0 1018.4 0 88
2017-11-16 00:00:00 14.3 5 Noroeste 10 Noroeste 0 1018.5 0.3 87
2017-11-15 23:00:00 14.7 5 Noroeste 10 Noroeste 0 1018.7 0.8 86
2017-11-15 22:00:00 15.3 5 Noroeste 10 Oeste 0 1018.4 0.6 84
2017-11-15 21:00:00 15.9 4 Noroeste 10 Noroeste 0 1018.2 0.7 83
2017-11-15 20:00:00 16.1 5 Noroeste 8 Noroeste 0 1017.9 0.4 81
2017-11-15 19:00:00 17.1 4 Sudeste 9 Sudeste 0 1017.8 0.3 80
2017-11-15 18:00:00 17.9 6 Sudeste 12 Sudeste 0 1017.5 -0.3 78
2017-11-15 17:00:00 18.7 9 Sudeste 15 Sudeste 0 1017.5 -1 77
2017-11-15 16:00:00 18.7 11 Sudeste 18 Sudeste 0 1017.5 -1.7 77
2017-11-15 15:00:00 18.3 12 Sudeste 18 Este 0 1017.8 -2.2 78
2017-11-15 14:00:00 18.2 13 Este 21 Este 0 1018.5 -1.8 77
2017-11-15 13:00:00 18 12 Este 22 Este 0 1019.2 -0.9 79
2017-11-15 12:00:00 17.6 16 Este 24 Este 0 1020 0.1 79
2017-11-15 11:00:00 17.3 16 Este 23 Este 0 1020.3 1 79
2017-11-15 10:00:00 16.8 15 Este 25 Este 0 1020.1 1.3 78
2017-11-15 09:00:00 16.7 12 Este 27 Este 0 1019.9 1.1 79
2017-11-15 08:00:00 16.5 20 Este 29 Sudeste 0 1019.3 0.6 79
2017-11-15 07:00:00 16.4 18 Este 28 Este 0 1018.8 0 81
2017-11-15 06:00:00 16.4 19 Este 33 Este 0 1018.8 0 84
2017-11-15 05:00:00 16.6 19 Este 32 Sudeste 0 1018.7 0 85
2017-11-15 04:00:00 16.8 25 Este 35 Sudeste 0 1018.8 0 87
2017-11-15 03:00:00 16.9 28 Sudeste 35 Sudeste 0 1018.8 0.2 86
2017-11-15 02:00:00 16.9 27 Este 36 Sudeste 0 1018.7 0.3 86
2017-11-15 01:00:00 17.1 23 Este 31 Sudeste 0 1018.8 0.9 86
2017-11-15 00:00:00 17.1 23 Sudeste 32 Sudeste 0 1018.6 1.1 87
2017-11-14 23:00:00 17.2 21 Sudeste 29 Sudeste 0 1018.4 1.3 86
2017-11-14 22:00:00 16.9 16 Este 26 Sudeste 0 1017.9 1.2 86
2017-11-14 21:00:00 17 18 Sudeste 23 Sudeste 0 1017.5 1.4 86
2017-11-14 20:00:00 17.1 11 Este 19 Sudeste 0 1017.1 1.3 85
2017-11-14 19:00:00 17.5 13 Este 20 Sudeste 0 1016.7 1.1 83
2017-11-14 18:00:00 17.8 12 Sudeste 15 Sudeste 0 1016.1 0.3 82
2017-11-14 17:00:00 18.1 12 Sudeste 18 Sudeste 0 1015.8 -0.7 79
2017-11-14 16:00:00 18.5 8 Sudeste 13 Sudeste 0 1015.6 -1.4 73
2017-11-14 15:00:00 18.4 8 Este 17 Este 0 1015.8 -1.6 70
2017-11-14 14:00:00 18.3 11 Este 17 Este 0 1016.5 -0.9 66
2017-11-14 13:00:00 18.2 8 Este 16 Sudeste 0 1017 -0.1 65
2017-11-14 12:00:00 17.5 12 Sudeste 15 Sudeste 0 1017.4 0.8 70
2017-11-14 11:00:00 17.4 4 Noroeste 14 Oeste 0 1017.4 1.4 57
2017-11-14 10:00:00 15.6 6 Noroeste 18 Oeste 0 1017.1 1.5 57
2017-11-14 09:00:00 14.4 9 Noroeste 19 Oeste 0 1016.6 1.3 57
2017-11-14 08:00:00 14.4 9 Noroeste 17 Oeste 0 1016 0.9 56
2017-11-14 07:00:00 14.6 9 Oeste 17 Noroeste 0 1015.6 0.4 57
2017-11-14 06:00:00 15 8 Noroeste 15 Noroeste 0 1015.3 -0.3 59
2017-11-14 05:00:00 15.3 8 Noroeste 14 Oeste 0 1015.1 -0.7 62
2017-11-14 04:00:00 15.4 7 Noroeste 15 Oeste 0 1015.2 -0.7 65
2017-11-14 03:00:00 15.7 8 Noroeste 14 Noroeste 0 1015.6 -0.4 66
2017-11-14 02:00:00 16.5 6 Noroeste 12 Noroeste 0 1015.8 -0.2 70
2017-11-14 01:00:00 17.1 7 Noroeste 11 Noroeste 0 1015.9 0.5 60
2017-11-14 00:00:00 17.2 0 Calma 14 Este 0 1016 1.8 71
2017-11-13 23:00:00 18.5 4 Nordeste 16 Nordeste 0 1016 2.3 80
2017-11-13 22:00:00 20.3 8 Nordeste 34 Noroeste 0 1015.4 2.4 49
2017-11-13 21:00:00 20.7 14 Norte 31 Norte 0 1014.2 1.6 46
2017-11-13 20:00:00 21.2 3 Noroeste 26 Norte 0 1013.7 1.5 45
2017-11-13 19:00:00 22.3 8 Norte 41 Noroeste 0 1013 1 42
2017-11-13 18:00:00 22 9 Noroeste 39 Norte 0 1012.6 -0.1 46
2017-11-13 17:00:00 23.5 9 Noroeste 30 Norte 0 1012.2 -1.4 43
2017-11-13 16:00:00 23.8 10 Noroeste 26 Noroeste 0 1012 -2.3 42
2017-11-13 15:00:00 23.4 8 Oeste 27 Oeste 0 1012.7 -2.6 44
2017-11-13 14:00:00 23.4 8 Noroeste 29 Noroeste 0 1013.6 -2.5 43
2017-11-13 13:00:00 22.5 8 Noroeste 30 Oeste 0 1014.3 -1.8 46
2017-11-13 12:00:00 21.1 9 Oeste 27 Oeste 0 1015.3 -0.3 49
2017-11-13 11:00:00 20 12 Oeste 25 Oeste 0 1016.1 0.7 50
2017-11-13 10:00:00 19.2 9 Noroeste 19 Noroeste 0 1016.1 1.1 51
2017-11-13 09:00:00 18.3 7 Noroeste 18 Noroeste 0 1015.6 0.3 53
2017-11-13 08:00:00 18 5 Oeste 18 Oeste 0 1015.4 0.1 54
2017-11-13 07:00:00 17.2 9 Noroeste 21 Oeste 0 1015 -0.6 56
2017-11-13 06:00:00 18.3 5 Noroeste 18 Oeste 0 1015.3 -0.3 52
2017-11-13 05:00:00 19.5 7 Nordeste 28 Nordeste 0 1015.3 -0.7 49
2017-11-13 04:00:00 19.7 4 Nordeste 26 Norte 0 1015.6 -0.9 48
2017-11-13 03:00:00 20.2 9 Norte 19 Nordeste 0 1015.6 -1.2 46
2017-11-13 02:00:00 21.4 7 Norte 23 Noroeste 0 1016 -0.6 44
2017-11-13 01:00:00 21.1 5 Sudoeste 23 Oeste 0 1016.5 -0.1 48
2017-11-13 00:00:00 20.7 0 Calma 36 Norte 0 1016.8 0.1 48
2017-11-12 23:00:00 21.8 8 Norte 32 Norte 0 1016.6 -0.2 46
2017-11-12 22:00:00 22.4 5 Oeste 32 Oeste 0 1016.6 -0.1 42
2017-11-12 21:00:00 22.2 8 Noroeste 31 Noroeste 0 1016.7 0 42
2017-11-12 20:00:00 22.1 10 Noroeste 33 Oeste 0 1016.8 0.2 41
2017-11-12 19:00:00 22.5 8 Noroeste 28 Noroeste 0 1016.7 -0.2 40
2017-11-12 18:00:00 23.3 10 Noroeste 26 Noroeste 0 1016.7 -0.6 38
2017-11-12 17:00:00 22.8 5 Norte 15 Noroeste 0 1016.6 -1.2 48
2017-11-12 16:00:00 23.4 9 Norte 23 Nordeste 0 1016.9 -1.8 44
2017-11-12 15:00:00 20.5 5 Sudeste 21 Sudoeste 0 1017.3 -2.6 67
2017-11-12 14:00:00 19.7 4 Sudoeste 19 Sudoeste 0 1017.8 -3.1 72
2017-11-12 13:00:00 19.7 3 Nordeste 32 Sur 0 1018.7 -2.6 72
2017-11-12 12:00:00 17.5 6 Sudoeste 22 Sur 0 1019.9 -1.4 87
2017-11-12 11:00:00 16.1 5 Este 10 Este 0 1020.9 -0.2 94
2017-11-12 10:00:00 15.3 7 Nordeste 11 Este 0 1021.3 0.4 94
2017-11-12 09:00:00 13.4 3 Noroeste 9 Oeste 0 1021.3 0.2 92
2017-11-12 08:00:00 13 5 Noroeste 12 Noroeste 0 1021.1 0.2 92
2017-11-12 07:00:00 13 6 Noroeste 9 Noroeste 0 1020.9 -0.4 91
2017-11-12 06:00:00 13.6 5 Noroeste 15 Noroeste 0 1021.1 -0.6 92
2017-11-12 05:00:00 13.5 9 Noroeste 16 Oeste 0 1020.9 -1.3 92
2017-11-12 04:00:00 13.9 8 Noroeste 14 Noroeste 0 1021.3 -1.6 91
2017-11-12 03:00:00 14.3 5 Noroeste 10 Noroeste 0 1021.7 -1.4 89
2017-11-12 02:00:00 14.9 4 Noroeste 12 Oeste 0 1022.2 -1.2 90
2017-11-12 01:00:00 15.2 4 Noroeste 13 Noroeste 0 1022.9 -0.3 89
2017-11-12 00:00:00 16.2 4 Noroeste 13 Nordeste 0 1023.1 0.2 91
2017-11-11 23:00:00 16.8 9 Nordeste 16 Este 0 1023.4 1 91
2017-11-11 22:00:00 16.9 10 Este 19 Nordeste 0 1023.2 1.5 92
2017-11-11 21:00:00 17.4 12 Este 20 Nordeste 0 1022.9 1.7 88
2017-11-11 20:00:00 18.6 12 Nordeste 23 Nordeste 0 1022.4 1.1 77
2017-11-11 19:00:00 19.2 5 Este 22 Sudoeste 0 1021.7 0.5 64
2017-11-11 18:00:00 19.8 11 Sur 21 Sur 0 1021.2 -0.4 67
2017-11-11 17:00:00 20.6 7 Sur 22 Sudoeste 0 1021.3 -1.1 66
2017-11-11 16:00:00 20.1 7 Sudoeste 30 Sudoeste 0 1021.2 -2.1 67
2017-11-11 15:00:00 19.1 14 Sudoeste 27 Sudoeste 0 1021.6 -2.8 66
2017-11-11 14:00:00 19.4 6 Sudoeste 28 Sur 0 1022.4 -2.4 63
2017-11-11 13:00:00 18.7 8 Sudoeste 30 Sudoeste 0 1023.3 -1.7 65
2017-11-11 12:00:00 20 5 Oeste 19 Oeste 0 1024.4 -0.5 52
2017-11-11 11:00:00 18.9 5 Sudoeste 12 Sur 0 1024.8 -0.1 60
2017-11-11 10:00:00 17 2 Sudeste 15 Sudoeste 0 1025 0.3 64
2017-11-11 09:00:00 15 3 Oeste 13 Norte 0 1024.9 0 68
2017-11-11 08:00:00 14.3 4 Noroeste 13 Noroeste 0 1024.9 0.1 71
2017-11-11 07:00:00 13.1 7 Noroeste 15 Oeste 0 1024.7 -0.8 75
2017-11-11 06:00:00 12.4 3 Norte 13 Oeste 0 1024.9 -0.8 77
2017-11-11 05:00:00 12.7 2 Oeste 11 Oeste 0 1024.8 -1.5 78
2017-11-11 04:00:00 13.1 0 Calma 11 Noroeste 0 1025.5 -1.4 76
2017-11-11 03:00:00 12.9 7 Noroeste 17 Noroeste 0 1025.7 -1.3 76
2017-11-11 02:00:00 13.4 5 Noroeste 15 Noroeste 0 1026.3 -0.9 77
2017-11-11 01:00:00 13.5 6 Noroeste 13 Oeste 0 1026.9 -0.1 76
2017-11-11 00:00:00 14.3 6 Noroeste 12 Oeste 0 1027 0.2 75
2017-11-10 23:00:00 15 6 Noroeste 12 Noroeste 0 1027.2 0.8 74
2017-11-10 22:00:00 15.8 4 Nordeste 8 Noroeste 0 1027 1.3 70
2017-11-10 21:00:00 16.3 5 Norte 13 Nordeste 0 1026.8 2.1 73
2017-11-10 20:00:00 17 9 Nordeste 13 Nordeste 0 1026.4 2.2 73
2017-11-10 19:00:00 17.8 9 Sudeste 19 Este 0 1025.7 2 70
2017-11-10 18:00:00 19.2 10 Sudeste 17 Norte 0 1024.7 0.7 59
2017-11-10 17:00:00 20.3 6 Noroeste 27 Noroeste 0 1024.2 -0.1 43
2017-11-10 16:00:00 20.1 9 Norte 31 Noroeste 0 1023.7 -0.7 42
2017-11-10 15:00:00 19.4 12 Norte 42 Norte 0 1024 -0.8 43
2017-11-10 14:00:00 18.5 16 Norte 35 Norte 0 1024.3 -0.7 44
2017-11-10 13:00:00 18.1 12 Nordeste 24 Nordeste 0 1024.4 -0.2 44
2017-11-10 12:00:00 17.1 10 Nordeste 36 Norte 0 1024.8 0.7 47
2017-11-10 11:00:00 16.1 18 Norte -- -- -- 1025 0.5 48
2017-11-10 10:00:00 15.2 6 Norte 29 Nordeste 0 1024.6 0.5 49
2017-11-10 09:00:00 14.8 10 Norte 52 Norte 0 1024.1 0.3 49
2017-11-10 08:00:00 15.3 18 Norte 37 Nordeste 0 1024.5 0.5 49
2017-11-10 07:00:00 13.6 5 Oeste 17 Oeste 0 1024.1 0.2 60
2017-11-10 06:00:00 13.7 3 Noroeste 18 Noroeste 0 1023.8 0 59
2017-11-10 05:00:00 14.4 10 Noroeste 19 Norte 0 1024 0.1 55
2017-11-10 04:00:00 13.9 7 Oeste 12 Oeste 0 1023.9 -0.4 62
2017-11-10 03:00:00 14.2 6 Noroeste 18 Noroeste 0 1023.8 -0.2 60
2017-11-10 02:00:00 14.4 8 Oeste 14 Oeste 0 1023.9 0.5 59
2017-11-10 01:00:00 15.3 6 Noroeste 24 Norte 0 1024.3 1.2 59
2017-11-10 00:00:00 15.5 9 Noroeste 23 Noroeste 0 1024 1.5 62
2017-11-09 23:00:00 15.4 6 Noroeste 12 Noroeste 0 1023.4 1 70
2017-11-09 22:00:00 15.7 4 Noroeste 11 Noroeste 0 1023.1 1.4 71
2017-11-09 21:00:00 16.4 6 Noroeste 11 Noroeste 0 1022.5 1.4 73
2017-11-09 20:00:00 16.8 4 Norte 14 Este 0 1022.4 1.7 74
2017-11-09 19:00:00 17.5 10 Este 15 Este 0 1021.7 1.5 75
2017-11-09 18:00:00 18.2 10 Sudeste 17 Sudeste 0 1021.1 1.1 73
2017-11-09 17:00:00 18.8 13 Sudeste 21 Sudeste 0 1020.7 0.6 73
2017-11-09 16:00:00 18.7 14 Este 21 Sudeste 0 1020.2 -0.4 76
2017-11-09 15:00:00 18.8 12 Sudeste 19 Sudeste 0 1020 -1.2 76
2017-11-09 14:00:00 18.9 10 Este 19 Este 0 1020.1 -0.9 76
2017-11-09 13:00:00 18.5 14 Este 21 Este 0 1020.6 -0.1 71
2017-11-09 12:00:00 18.3 15 Este 24 Este 0 1021.2 0.8 69
2017-11-09 11:00:00 17.7 12 Este 16 Este 0 1021 1.5 65
2017-11-09 10:00:00 16.6 5 Noroeste 12 Oeste 0 1020.7 1.9 60
2017-11-09 09:00:00 15.4 5 Noroeste 15 Oeste 0 1020.4 1.9 62
2017-11-09 08:00:00 16 10 Noroeste 20 Noroeste 0 1019.5 1.2 58
2017-11-09 07:00:00 15.7 6 Noroeste 12 Oeste 0 1018.8 0.6 62
2017-11-09 06:00:00 16.2 5 Noroeste 14 Oeste 0 1018.5 0.7 61
2017-11-09 05:00:00 16.7 0 Calma 13 Oeste 0 1018.3 0.3 61
2017-11-09 04:00:00 17 2 Oeste 22 Norte 0 1018.2 0 62
2017-11-09 03:00:00 17.1 0 Calma 19 Norte 0 1017.8 -0.7 62
2017-11-09 02:00:00 16.9 3 Noroeste 15 Sudeste 0 1018 -0.7 68
2017-11-09 01:00:00 16.5 2 Sudoeste 13 Oeste 0 1018.2 -0.6 70
2017-11-09 00:00:00 16.3 0 Calma 14 Oeste 0 1018.5 -0.1 70
2017-11-08 23:00:00 16.4 8 Noroeste 13 Noroeste 0 1018.7 0.2 68
2017-11-08 22:00:00 16 4 Oeste 10 Noroeste 0 1018.8 0.8 81
2017-11-08 21:00:00 16.5 2 Norte 12 Oeste 0 1018.6 0.8 84
2017-11-08 20:00:00 17.2 3 Oeste 10 Oeste 0 1018.5 0.5 85
2017-11-08 19:00:00 17.8 3 Oeste 11 Oeste 0 1018 -0.3 84
2017-11-08 18:00:00 18.5 4 Oeste 16 Oeste 0 1017.8 -0.8 82
2017-11-08 17:00:00 18.8 6 Sudoeste 18 Sur 0 1018 -1.2 81
2017-11-08 16:00:00 18.6 9 Sudoeste 19 Sudoeste 0 1018.3 -1.6 84
2017-11-08 15:00:00 18.1 14 Sudoeste 18 Sudoeste 0 1018.6 -2 90
2017-11-08 14:00:00 17.9 12 Sur 15 Sur 0 1019.2 -1.6 88
2017-11-08 13:00:00 17.8 7 Sur 11 Sur 0 1019.9 -0.9 85
2017-11-08 12:00:00 17.6 5 Sur 7 Sur 0 1020.6 0.3 84
2017-11-08 11:00:00 16.5 3 Sudeste 6 Oeste 0 1020.8 1.2 83
2017-11-08 10:00:00 14.8 4 Noroeste 9 Oeste 0 1020.8 1.5 81
2017-11-08 09:00:00 13.2 5 Noroeste 12 Oeste 0 1020.3 1.5 84
2017-11-08 08:00:00 12.8 8 Noroeste 14 Noroeste 0 1019.6 0.9 84
2017-11-08 07:00:00 12.8 9 Noroeste 14 Oeste 0 1019.3 0.5 84
2017-11-08 06:00:00 13 8 Noroeste 15 Noroeste 0 1018.8 -0.1 86
2017-11-08 05:00:00 13.3 4 Noroeste 13 Noroeste 0 1018.7 -0.1 86
2017-11-08 04:00:00 13.6 6 Noroeste 14 Noroeste 0 1018.8 0 85
2017-11-08 03:00:00 14 6 Noroeste 15 Oeste 0 1018.9 0 82
2017-11-08 02:00:00 13.9 6 Noroeste 11 Noroeste 0 1018.8 0 84
2017-11-08 01:00:00 14.4 5 Noroeste 9 Oeste 0 1018.8 0.3 87
2017-11-08 00:00:00 15.2 5 Noroeste 8 Noroeste 0 1018.9 0.7 89
2017-11-07 23:00:00 16 2 Noroeste 8 Nordeste 0 1018.8 1 89
2017-11-07 22:00:00 16.6 5 Nordeste 9 Nordeste 0 1018.5 1.4 89
2017-11-07 21:00:00 16.9 0 Calma 8 Noroeste 0 1018.2 1.1 87
2017-11-07 20:00:00 17.6 3 Sudoeste 15 Sudoeste 0 1017.8 0.8 88
2017-11-07 19:00:00 17.9 9 Sudoeste 16 Sudoeste 0 1017.1 0.3 86
2017-11-07 18:00:00 18.2 4 Oeste 18 Oeste 0 1017.1 0.1 84
2017-11-07 17:00:00 18.5 10 Sudoeste 16 Sudoeste 0 1017 -0.2 82
2017-11-07 16:00:00 18.6 9 Sur 13 Sur 0 1016.8 -0.9 79
2017-11-07 15:00:00 19.1 9 Sur 11 Sur 0 1017 -1.2 77
2017-11-07 14:00:00 19.3 9 Sur 11 Sudeste 0 1017.2 -1.2 76
2017-11-07 13:00:00 18.8 8 Sudeste 12 Sudeste 0 1017.7 -0.5 76
2017-11-07 12:00:00 18.2 8 Sudeste 11 Sudeste 0 1018.2 0.2 75
2017-11-07 11:00:00 17.4 4 Sur 8 Oeste 0 1018.4 1.1 71
2017-11-07 10:00:00 15.7 5 Noroeste 13 Oeste 0 1018.2 1.2 67
2017-11-07 09:00:00 14 8 Noroeste 18 Oeste 0 1018 1.1 72
2017-11-07 08:00:00 13.3 9 Noroeste 16 Oeste 0 1017.3 0.5 73
2017-11-07 07:00:00 13.6 8 Noroeste 15 Oeste 0 1017 0.1 74
2017-11-07 06:00:00 13.6 8 Noroeste 15 Noroeste 0 1016.9 -0.1 75
2017-11-07 05:00:00 14.1 7 Noroeste 14 Noroeste 0 1016.8 -0.4 74
2017-11-07 04:00:00 14.2 6 Noroeste 13 Noroeste 0 1016.9 -0.8 74
2017-11-07 03:00:00 14.6 7 Noroeste 13 Oeste 0 1017 -0.7 76
2017-11-07 02:00:00 14.9 5 Noroeste 11 Noroeste 0 1017.2 -0.4 78
2017-11-07 01:00:00 15.5 6 Noroeste 12 Noroeste 0 1017.7 0.4 81
2017-11-07 00:00:00 16 6 Noroeste 11 Noroeste 0 1017.7 0.7 84
2017-11-06 23:00:00 16.3 6 Noroeste 11 Oeste 0 1017.6 0.5 82
2017-11-06 22:00:00 17.1 4 Noroeste 9 Oeste 0 1017.3 -0.1 80
2017-11-06 21:00:00 17.6 4 Noroeste 8 Oeste 0 1017 -0.3 79
2017-11-06 20:00:00 17.8 4 Norte 9 Este 0 1017.1 -0.4 78
2017-11-06 19:00:00 18.4 6 Este 10 Este 0 1017.4 -0.3 79
2017-11-06 18:00:00 19 7 Este 12 Este 0 1017.3 -0.8 77
2017-11-06 17:00:00 19.8 7 Este 12 Este 0 1017.5 -1.5 73
2017-11-06 16:00:00 19.8 6 Este 12 Este 0 1017.7 -2 73
2017-11-06 15:00:00 19.8 8 Este 15 Este 0 1018.1 -2.5 75
2017-11-06 14:00:00 19.6 11 Este 22 Este 0 1019 -1.4 79
2017-11-06 13:00:00 19.5 15 Este 25 Este 0 1019.7 -0.4 77
2017-11-06 12:00:00 19.6 19 Este 32 Este 0 1020.6 1 75
2017-11-06 11:00:00 19.5 22 Este 36 Este 0 1020.4 1.4 75
2017-11-06 10:00:00 19.4 22 Este 35 Este 0 1020.1 1.5 76
2017-11-06 09:00:00 19.2 21 Este 35 Nordeste 0 1019.6 0.8 76
2017-11-06 08:00:00 19.3 20 Nordeste 30 Nordeste 0 1019 0.4 70
2017-11-06 07:00:00 19.1 15 Este 25 Este 0 1018.6 0 67
2017-11-06 06:00:00 17.2 3 Noroeste 8 Noroeste 0 1018.8 0 70
2017-11-06 05:00:00 17.6 2 Noroeste 11 Oeste 0 1018.6 -0.2 69
2017-11-06 04:00:00 18.1 7 Noroeste 13 Oeste 0 1018.6 -0.4 67
2017-11-06 03:00:00 18.4 7 Noroeste 16 Noroeste 0 1018.8 -0.1 66
2017-11-06 02:00:00 19.1 7 Noroeste 22 Norte 0 1018.8 0 64
2017-11-06 01:00:00 19.7 10 Norte 39 Norte 0 1019 0.2 61
2017-11-06 00:00:00 19.6 16 Norte 36 Norte 0 1018.9 0.4 64
2017-11-05 23:00:00 19.6 14 Noroeste 32 Norte 0 1018.8 0.3 65
2017-11-05 22:00:00 19.5 9 Noroeste 24 Nordeste 0 1018.8 0.6 66
2017-11-05 21:00:00 19.3 0 Calma 33 Sudeste 0 1018.5 0.5 68
2017-11-05 20:00:00 19.8 3 Nordeste 26 Nordeste 0 1018.5 0.6 66
2017-11-05 19:00:00 19.9 12 Nordeste 27 Norte 0 1018.2 0.5 66
2017-11-05 18:00:00 20.8 8 Nordeste 35 Nordeste 0 1018 0.3 62
2017-11-05 17:00:00 21.4 18 Nordeste 44 Norte 0 1017.9 -0.2 62
2017-11-05 16:00:00 22.6 8 Nordeste 23 Nordeste 0 1017.7 -1.1 60
2017-11-05 15:00:00 22.4 9 Nordeste 29 Norte 0 1017.7 -1.6 61
2017-11-05 14:00:00 22.2 4 Este 24 Nordeste 0 1018.1 -1.5 64
2017-11-05 13:00:00 21.6 9 Norte 27 Norte 0 1018.8 -0.9 63
2017-11-05 12:00:00 20.3 2 Nordeste 21 Noroeste 0 1019.3 0 69
2017-11-05 11:00:00 19.6 6 Norte 25 Norte 0 1019.6 1.2 72
2017-11-05 10:00:00 18.8 8 Nordeste 20 Nordeste 0 1019.7 1.4 76
2017-11-05 09:00:00 17.6 3 Noroeste 14 Oeste 0 1019.3 1.4 79
2017-11-05 08:00:00 17.3 6 Oeste 13 Oeste 0 1018.4 1.1 78
2017-11-05 07:00:00 16.9 6 Noroeste 14 Oeste 0 1018.3 1.2 80
2017-11-05 06:00:00 16.9 8 Noroeste 14 Noroeste 0 1017.9 0.8 79
2017-11-05 05:00:00 17.6 5 Oeste 9 Oeste 0 1017.3 0.1 79
2017-11-05 04:00:00 17.7 3 Oeste 20 Noroeste 0 1017.1 -0.4 77
2017-11-05 03:00:00 17.5 6 Noroeste 11 Oeste 0 1017.1 -0.1 80
2017-11-05 02:00:00 17.4 2 Oeste 10 Oeste 0 1017.2 0.2 83
2017-11-05 01:00:00 17.5 3 Noroeste 10 Oeste 0 1017.5 1 83
2017-11-05 00:00:00 18.3 0 Calma 10 Oeste 0 1017.2 1.3 84
2017-11-04 23:00:00 18.3 4 Norte 19 Noroeste 0 1017 1.5 84
2017-11-04 22:00:00 18.5 10 Norte 22 Norte 0 1016.5 1.7 82
2017-11-04 21:00:00 19.1 6 Oeste 21 Oeste 0 1015.9 1.8 78
2017-11-04 20:00:00 19.6 10 Oeste 21 Oeste 0 1015.5 2.2 76
2017-11-04 19:00:00 19.9 6 Oeste 19 Oeste 0 1014.8 1.7 73
2017-11-04 18:00:00 20.9 5 Oeste 21 Oeste 0 1014.1 1 70
2017-11-04 17:00:00 21.6 7 Oeste 27 Oeste 0 1013.3 -0.3 73
2017-11-04 16:00:00 20.4 9 Sudoeste 27 Sudoeste 0 1013.1 -1 84
2017-11-04 15:00:00 19.8 7 Sudoeste 24 Sudoeste 0 1013.1 -1.3 89
2017-11-04 14:00:00 19.2 4 Sudoeste 18 Sudoeste 0 1013.6 -0.9 92
2017-11-04 13:00:00 18.6 5 Sudoeste 22 Oeste 0 1014.1 -0.1 92
2017-11-04 12:00:00 17.9 5 Sudoeste 17 Oeste 0.4 1014.4 0.8 97
2017-11-04 11:00:00 17.8 4 Oeste 19 Oeste 2 1014.5 1.8 98
2017-11-04 10:00:00 18 6 Oeste 17 Oeste 0.2 1014.2 1.9 99
2017-11-04 09:00:00 17.6 3 Noroeste 8 Oeste 1.2 1013.6 1.1 99
2017-11-04 08:00:00 17.4 3 Oeste 10 Sur 0 1012.7 0.6 99
2017-11-04 07:00:00 17.4 4 Oeste 13 Oeste 0.3 1012.3 0.3 99
2017-11-04 06:00:00 17.8 3 Oeste 16 Norte 8.7 1012.5 -- 99
2017-11-04 05:00:00 17.7 7 Este 12 Este 0 1012.1 -- 99
2017-11-04 04:00:00 17.7 2 Nordeste -- -- -- 1012 -- 98
2017-11-04 03:00:00 -- -- -- -- -- -- -- -- --
2017-11-04 02:00:00 -- -- -- -- -- -- -- -- --
2017-11-04 01:00:00 -- -- -- -- -- -- -- -- --
2017-11-04 00:00:00 -- -- -- -- -- -- -- -- --
2017-11-03 23:00:00 -- -- -- -- -- -- -- -- --
2017-11-03 22:00:00 19.5 6 Norte 22 Norte 1.1 1013.4 0.9 97
2017-11-03 21:00:00 19.6 4 Noroeste 12 Sur 0 1012.8 0.6 96
2017-11-03 20:00:00 19.9 2 Oeste 8 Oeste 0 1012.6 0.4 95
2017-11-03 19:00:00 19.9 2 Sudoeste 12 Oeste 0 1012.5 0.1 94
2017-11-03 18:00:00 20.1 7 Sudoeste 13 Sur 0 1012.2 -0.3 93
2017-11-03 17:00:00 20.1 6 Sudoeste 10 Sudoeste 0 1012.2 -0.7 92
2017-11-03 16:00:00 20.1 5 Sur 8 Sur 0 1012.4 -1.1 90
2017-11-03 15:00:00 20.6 4 Sur 8 Sudeste 0 1012.5 -1.8 89
2017-11-03 14:00:00 20.5 6 Sudeste 9 Sudeste 0 1012.9 -1.6 89
2017-11-03 13:00:00 20.6 6 Este 10 Sudeste 0 1013.5 -0.9 90
2017-11-03 12:00:00 20.3 6 Este 9 Este 0 1014.3 0.2 93
2017-11-03 11:00:00 20.2 4 Este 6 Este 0 1014.5 0.7 94
2017-11-03 10:00:00 19.5 4 Nordeste 6 Este 0 1014.4 0.8 95
2017-11-03 09:00:00 18.8 3 Noroeste 8 Noroeste 0 1014.1 0.7 95
2017-11-03 08:00:00 18.8 5 Noroeste 8 Noroeste 0 1013.8 -0.5 95
2017-11-03 07:00:00 19.3 5 Nordeste 15 Este 0 1013.6 -0.5 95
2017-11-03 06:00:00 19.5 11 Este 17 Este 0 1013.4 -1.6 95
2017-11-03 05:00:00 19.5 3 Este 12 Este 0 1014.3 -1 95
2017-11-03 04:00:00 19.7 9 Este 14 Este 0 1014.1 -1.2 95
2017-11-03 03:00:00 19.6 6 Este 14 Este 0 1015 -0.4 95
2017-11-03 02:00:00 19.6 6 Nordeste 15 Este 0 1015.3 -0.9 96
2017-11-03 01:00:00 19.6 14 Este 21 Este 0 1015.3 -0.7 95
2017-11-03 00:00:00 19.7 8 Este 15 Este 0 1015.4 -0.8 95
2017-11-02 23:00:00 19.9 9 Este 15 Este 0 1016.2 0.3 92
2017-11-02 22:00:00 19.7 10 Este 14 Este 0 1016 0.3 92
2017-11-02 21:00:00 19.8 7 Este 10 Este 0 1016.2 0.5 91
2017-11-02 20:00:00 19.9 6 Este 9 Este 0 1015.9 0.1 89
2017-11-02 19:00:00 19.9 5 Nordeste 10 Nordeste 0 1015.7 -0.3 89
2017-11-02 18:00:00 20.1 6 Nordeste 9 Nordeste 0 1015.7 -0.7 88
2017-11-02 17:00:00 20.6 6 Nordeste 12 Nordeste 0 1015.8 -1.2 87
2017-11-02 16:00:00 20.9 7 Este 12 Este 0 1016 -1.6 86
2017-11-02 15:00:00 21 7 Nordeste 13 Nordeste 0 1016.4 -2.1 86
2017-11-02 14:00:00 21 8 Este 13 Este 0 1017 -1.5 86
2017-11-02 13:00:00 21.2 9 Este 17 Nordeste 0 1017.6 -1.1 87
2017-11-02 12:00:00 20.6 11 Este 16 Este 0 1018.5 0.1 89
2017-11-02 11:00:00 20.5 12 Este 17 Este 0 1018.5 0.5 91
2017-11-02 10:00:00 20.1 11 Este 19 Este 0 1018.7 0.8 92
2017-11-02 09:00:00 19.8 14 Este 19 Este 0 1018.4 0.6 95
2017-11-02 08:00:00 19.8 11 Este 22 Este 0 1018 0.1 95
2017-11-02 07:00:00 19.7 16 Sudeste 22 Este 0 1017.9 -0.2 95
2017-11-02 06:00:00 19.6 11 Este 19 Este 0 1017.8 -0.6 95
2017-11-02 05:00:00 19.6 11 Este 16 Este 0 1017.9 -1 96
2017-11-02 04:00:00 19.8 11 Este 17 Este 0 1018.1 -1 96
2017-11-02 03:00:00 19.9 9 Este 14 Este 0 1018.4 -1 96
2017-11-02 02:00:00 19.9 10 Este 24 Sudeste 0 1018.9 -0.3 95
2017-11-02 01:00:00 20.1 10 Este 19 Este 0 1019.1 0 95
2017-11-02 00:00:00 20.2 8 Este 15 Este 0 1019.4 0.6 95
2017-11-01 23:00:00 20.4 9 Este 24 Este 0 1019.2 0.3 94
2017-11-01 22:00:00 20.4 9 Este 19 Este 0 1019.1 0.4 92
2017-11-01 21:00:00 20.3 11 Este 21 Este 0 1018.8 0.3 91
2017-11-01 20:00:00 20.5 10 Este 18 Este 0 1018.9 0.6 90
2017-11-01 19:00:00 20.5 9 Este 17 Este 0 1018.7 0.3 88
2017-11-01 18:00:00 21.1 5 Nordeste 14 Este 0 1018.5 -0.2 86
2017-11-01 17:00:00 21.6 7 Este 14 Este 0 1018.3 -1.1 83
2017-11-01 16:00:00 21.8 9 Este 13 Este 0 1018.4 -1.6 83
2017-11-01 15:00:00 21.7 8 Este 13 Este 0 1018.7 -2.1 82
2017-11-01 14:00:00 21.5 9 Este 18 Este 0 1019.4 -1.5 82
2017-11-01 13:00:00 21.3 12 Este 18 Este 0 1020 -0.8 83
2017-11-01 12:00:00 21 11 Este 17 Este 0 1020.8 0.5 85
2017-11-01 11:00:00 20.6 10 Este 17 Este 0 1020.9 1.2 87
2017-11-01 10:00:00 20.2 11 Este 18 Este 0 1020.8 1.5 88
2017-11-01 09:00:00 20 7 Este 18 Este 0 1020.3 0.9 90
2017-11-01 08:00:00 19.7 6 Este 16 Este 0 1019.7 0.4 93
2017-11-01 07:00:00 19.6 10 Este 17 Este 0 1019.3 -0.2 93
2017-11-01 06:00:00 19.7 8 Este 17 Sudeste 0 1019.4 -0.2 94
2017-11-01 05:00:00 19.7 8 Este 15 Este 0 1019.3 -0.3 94
2017-11-01 04:00:00 19.9 9 Este 21 Sudeste 0 1019.5 -0.3 94
2017-11-01 03:00:00 20 10 Este 18 Este 0 1019.6 -0.3 95
2017-11-01 02:00:00 19.8 12 Este 18 Este 0 1019.6 -0.4 94
2017-11-01 01:00:00 19.9 9 Nordeste 15 Nordeste 0 1019.8 0 94
2017-11-01 00:00:00 20 10 Nordeste 17 Este 0 1019.9 0.5 93
2017-10-31 23:00:00 20.1 9 Nordeste 15 Nordeste 0 1020 1.1 92
2017-10-31 22:00:00 20.1 9 Nordeste 16 Este 0 1019.8 1.2 91
2017-10-31 21:00:00 19.9 7 Nordeste 13 Este 0 1019.4 1.1 89
2017-10-31 20:00:00 20.1 6 Nordeste 10 Nordeste 0 1018.9 0.8 89
2017-10-31 19:00:00 20.3 6 Nordeste 12 Este 0 1018.6 0.7 89
2017-10-31 18:00:00 20.9 5 Este 12 Este 0 1018.3 0.1 87
2017-10-31 17:00:00 21.6 5 Este 11 Este 0 1018.1 -0.3 84
2017-10-31 16:00:00 21.7 8 Este 13 Este 0 1017.9 -0.8 83
2017-10-31 15:00:00 21.6 6 Este 14 Este 0 1018.2 -0.9 83
2017-10-31 14:00:00 21.5 9 Este 18 Este 0 1018.4 -0.7 83
2017-10-31 13:00:00 20.8 12 Este 17 Nordeste 0 1018.7 0 83
2017-10-31 12:00:00 20.6 11 Este 21 Este 0 1019.1 1 83
2017-10-31 11:00:00 20.6 14 Este 24 Este 0 1019.1 1.8 84
2017-10-31 10:00:00 20.2 12 Este 21 Este 0 1018.7 1.8 89
2017-10-31 09:00:00 19.4 10 Este 19 Este 0 1018.1 1.4 92
2017-10-31 08:00:00 17.7 8 Nordeste 15 Nordeste 0 1017.3 0.8 92
2017-10-31 07:00:00 17.2 4 Noroeste 9 Norte 0 1016.9 0.6 91
2017-10-31 06:00:00 16.9 4 Noroeste 9 Noroeste 0 1016.7 0.4 90
2017-10-31 05:00:00 16.9 3 Noroeste 8 Noroeste 0 1016.5 0.4 88
2017-10-31 04:00:00 16.9 4 Noroeste 9 Noroeste 0 1016.3 -0.2 89
2017-10-31 03:00:00 16.8 5 Noroeste 9 Noroeste 0 1016.3 -0.1 89
2017-10-31 02:00:00 17.1 6 Noroeste 10 Noroeste 0 1016.1 -0.3 89
2017-10-31 01:00:00 17 6 Noroeste 11 Noroeste 0 1016.5 0.6 89
2017-10-31 00:00:00 17.2 3 Noroeste 6 Oeste 0 1016.4 0.7 90
2017-10-30 23:00:00 17.4 4 Noroeste 9 Noroeste 0 1016.4 1.2 92
2017-10-30 22:00:00 18.1 4 Noroeste 8 Oeste 0 1015.9 1.3 92
2017-10-30 21:00:00 18.9 0 Calma 8 Este 0 1015.7 1.4 94
2017-10-30 20:00:00 19.4 4 Este 6 Sudeste 0 1015.2 1.2 93
2017-10-30 19:00:00 19.7 3 Este 5 Nordeste 0 1014.6 0.6 90
2017-10-30 18:00:00 20.7 4 Sudeste 7 Sudeste 0 1014.3 0.2 86
2017-10-30 17:00:00 21.2 5 Sudeste 9 Sudeste 0 1014 -0.4 85
2017-10-30 16:00:00 21.5 7 Sudeste 10 Sudeste 0 1014 -1 84
2017-10-30 15:00:00 21.4 8 Sudeste 11 Sudeste 0 1014.1 -1.6 84
2017-10-30 14:00:00 21 7 Sudeste 10 Sudeste 0 1014.4 -1.5 86
2017-10-30 13:00:00 20.5 6 Sudeste 10 Sudeste 0 1015 -1 88
2017-10-30 12:00:00 19.9 5 Sudeste 8 Sudeste 0 1015.7 -0.1 89
2017-10-30 11:00:00 19.3 4 Sudeste 6 Sudeste 0 1015.9 0.5 89
2017-10-30 10:00:00 18.2 3 Oeste 10 Noroeste 0 1016 1.1 89
2017-10-30 09:00:00 16.7 6 Noroeste 12 Noroeste 0 1015.8 0.9 90
2017-10-30 08:00:00 16 8 Noroeste 14 Oeste 0 1015.4 0.5 91
2017-10-30 07:00:00 16.3 8 Noroeste 14 Noroeste 0 1014.9 -0.4 91
2017-10-30 06:00:00 16.6 8 Noroeste 14 Noroeste 0 1014.9 -0.8 90
2017-10-30 05:00:00 16.8 8 Noroeste 14 Noroeste 0 1014.9 -0.9 90
2017-10-30 04:00:00 17 6 Noroeste 14 Oeste 0 1015.3 -1.3 90
2017-10-30 03:00:00 17 5 Noroeste 13 Noroeste 0 1015.7 -1.3 89
2017-10-30 02:00:00 17.3 7 Noroeste 10 Noroeste 0 1015.8 -1.7 90
2017-10-30 01:00:00 17.7 5 Noroeste 9 Noroeste 0 1016.6 -0.9 90
2017-10-30 00:00:00 18.1 4 Noroeste 8 Noroeste 0 1017 -0.4 89
2017-10-29 23:00:00 18.6 6 Noroeste 9 Noroeste 0 1017.5 0.3 89
2017-10-29 22:00:00 19.1 3 Noroeste 6 Noroeste 0 1017.5 0.4 89
2017-10-29 21:00:00 19.4 0 Calma 5 Nordeste 0 1017.4 0.3 92
2017-10-29 20:00:00 20.1 2 Sudeste 4 Sudeste 0 1017.2 0 90
2017-10-29 19:00:00 20.5 0 Calma 3 Sur 0 1017.1 -0.4 87
2017-10-29 18:00:00 21.4 2 Sudeste 4 Sudeste 0 1017.1 -0.9 84
2017-10-29 17:00:00 22.4 2 Sudeste 4 Sur 0 1017.2 -1.6 84
2017-10-29 16:00:00 22.3 3 Sudeste 8 Sudeste 0 1017.5 -2.1 85
2017-10-29 15:00:00 22.3 7 Sudeste 12 Sudeste 0 1018 -2.5 86
2017-10-29 14:00:00 22 9 Sudeste 11 Sudeste 0 1018.8 -2.3 87
2017-10-29 13:00:00 21.4 5 Sudeste 8 Sudeste 0 1019.6 -1.7 87
2017-10-29 12:00:00 21.1 5 Este 9 Sudeste 0 1020.5 -0.2 89
2017-10-29 11:00:00 20.8 5 Este 9 Este 0 1021.1 0.3 89
2017-10-29 10:00:00 20.2 6 Este 12 Este 0 1021.3 0.6 90
2017-10-29 09:00:00 19 3 Noroeste 7 Norte 0 1020.7 0.2 89
2017-10-29 08:00:00 18.7 4 Noroeste 9 Noroeste 0 1020.8 0.3 90
2017-10-29 07:00:00 19 3 Noroeste 11 Este 0 1020.7 0 90
2017-10-29 06:00:00 19.9 8 Nordeste 14 Este 0 1020.5 -0.4 90
2017-10-29 05:00:00 19.8 8 Nordeste 18 Este 0 1020.5 -0.6 90
2017-10-29 04:00:00 18.8 3 Norte 9 Norte 0 1020.7 -0.9 91
2017-10-29 03:00:00 19 3 Norte 12 Nordeste 0 1020.9 -1.1 92
2017-10-29 02:00:00 18.9 4 Noroeste 9 Noroeste 0 1021.1 -1.1 91
2017-10-29 01:00:00 18.7 3 Norte 9 Este 0 1022 -0.1 92
2017-10-29 00:00:00 18.9 3 Noroeste 6 Noroeste 0 1022.2 0.2 92
2017-10-28 23:00:00 19.2 3 Noroeste 6 Nordeste 0 1022.2 0.4 92
2017-10-28 22:00:00 19.9 5 Nordeste 10 Nordeste 0 1022.1 0.6 92
2017-10-28 21:00:00 20.1 7 Este 11 Este 0 1022 0.8 92
2017-10-28 20:00:00 20.4 4 Este 9 Nordeste 0 1021.8 0.7 89
2017-10-28 19:00:00 21 5 Nordeste 8 Nordeste 0 1021.5 0 86
2017-10-28 18:00:00 21.3 6 Nordeste 14 Nordeste 0 1021.2 -0.8 85
2017-10-28 17:00:00 21.3 6 Este 13 Este 0 1021.1 -1.6 85
2017-10-28 16:00:00 21.4 8 Este 14 Este 0 1021.5 -1.6 85
2017-10-28 15:00:00 20.6 6 Este 22 Este 0 1022 -1.3 87
2017-10-28 14:00:00 19.8 9 Nordeste 17 Nordeste 0 1022.7 -0.2 89
2017-10-28 13:00:00 19 12 Este 18 Nordeste 0 1023.1 1.2 92
2017-10-28 12:00:00 18 13 Nordeste 24 Este 0 1023.3 2.5 95
2017-10-28 11:00:00 17.5 14 Sudeste 22 Sudeste 0 1022.9 2.6 95
2017-10-28 10:00:00 15.5 0 Calma 5 Oeste 0 1021.9 1.9 83
2017-10-28 09:00:00 15.2 4 Noroeste 8 Oeste 0 1020.8 0.9 81
2017-10-28 08:00:00 15.4 4 Noroeste 6 Noroeste 0 1020.3 0.2 79
2017-10-28 07:00:00 15.3 4 Noroeste 8 Noroeste 0 1020 -0.4 80
2017-10-28 06:00:00 16 0 Calma 3 Noroeste 0 1019.9 -1 78
2017-10-28 05:00:00 16.4 2 Oeste 16 Noroeste 0 1020.1 -1.3 78
2017-10-28 04:00:00 16.6 8 Oeste 13 Oeste 0 1020.4 -1.5 79
2017-10-28 03:00:00 17 4 Noroeste 9 Noroeste 0 1020.9 -1.6 81
2017-10-28 02:00:00 17.4 6 Noroeste 9 Noroeste 0 1021.4 -1.5 81
2017-10-28 01:00:00 17.9 4 Noroeste 13 Oeste 0 1021.9 -1.1 83
2017-10-28 00:00:00 18.1 3 Oeste 14 Oeste 0 1022.5 -0.7 85
2017-10-27 23:00:00 18.6 6 Noroeste 12 Oeste 0 1022.9 -0.3 86
2017-10-27 22:00:00 19.4 3 Oeste 9 Noroeste 0 1023 -0.3 90
2017-10-27 21:00:00 20.1 0 Calma 5 Sudoeste 0 1023.2 0.1 92
2017-10-27 20:00:00 20.9 0 Calma 3 Sudoeste 0 1023.2 -0.1 90
2017-10-27 19:00:00 21.6 0 Calma 7 Sur 0 1023.3 -0.5 89
2017-10-27 18:00:00 22.5 3 Sur 6 Sur 0 1023.1 -1.2 86
2017-10-27 17:00:00 21.8 4 Sur 8 Sur 0 1023.3 -1.7 89
2017-10-27 16:00:00 21.8 4 Sur 10 Sur 0 1023.8 -1.9 88
2017-10-27 15:00:00 22 7 Sur 12 Sur 0 1024.3 -1.7 88
2017-10-27 14:00:00 21.2 4 Sudoeste 8 Sudoeste 0 1025 -1 89
2017-10-27 13:00:00 20.8 6 Sudoeste 8 Sudoeste 0 1025.7 0.1 88
2017-10-27 12:00:00 20.4 4 Sudoeste 6 Sudoeste 0 1026 1 87
2017-10-27 11:00:00 19.8 0 Calma 8 Noroeste 0 1026 1.1 84
2017-10-27 10:00:00 17.9 6 Noroeste 10 Noroeste 0 1025.6 0.8 83
2017-10-27 09:00:00 17.7 5 Noroeste 8 Noroeste 0 1025 0.4 83
2017-10-27 08:00:00 17.6 4 Noroeste 11 Noroeste 0 1024.9 0.2 82
2017-10-27 07:00:00 17.5 4 Noroeste 9 Oeste 0 1024.8 -0.1 81
2017-10-27 06:00:00 17.7 4 Noroeste 7 Noroeste 0 1024.6 -0.5 81
2017-10-27 05:00:00 18.8 3 Noroeste 13 Este 0 1024.7 -0.7 81
2017-10-27 04:00:00 20.4 8 Este 17 Este 0 1024.9 -0.9 83
2017-10-27 03:00:00 20.5 5 Nordeste 19 Nordeste 0 1025.1 -0.9 83
2017-10-27 02:00:00 20.8 12 Nordeste 18 Nordeste 0 1025.4 -0.3 81
2017-10-27 01:00:00 20.6 8 Este 19 Este 0 1025.8 0.5 82
2017-10-27 00:00:00 21 12 Este 19 Este 0 1026 1.1 81
2017-10-26 23:00:00 21.1 12 Este 19 Este 0 1025.7 1.5 79
2017-10-26 22:00:00 21.3 12 Este 18 Nordeste 0 1025.3 1.3 78
2017-10-26 21:00:00 21.1 10 Nordeste 17 Este 0 1024.9 0.9 80
2017-10-26 20:00:00 21.1 11 Este 17 Este 0 1024.2 0.5 81
2017-10-26 19:00:00 21.8 10 Este 14 Este 0 1024 0.1 81
2017-10-26 18:00:00 22.3 8 Este 14 Este 0 1024 -0.3 82
2017-10-26 17:00:00 22.7 7 Este 12 Este 0 1023.7 -1.2 75
2017-10-26 16:00:00 22.4 7 Este 11 Nordeste 0 1023.9 -1.1 70
2017-10-26 15:00:00 22.5 6 Este 11 Este 0 1024.3 -0.8 68
2017-10-26 14:00:00 22.5 5 Este 17 Este 0 1024.9 -0.1 67
2017-10-26 13:00:00 22.3 10 Este 19 Este 0 1025 0.5 64
2017-10-26 12:00:00 22.1 13 Este 17 Este 0 1025.1 0.9 62
2017-10-26 11:00:00 21.1 9 Este 15 Este 0 1025 1.2 69
2017-10-26 10:00:00 18.7 5 Noroeste 9 Noroeste 0 1024.5 0.7 72
2017-10-26 09:00:00 17.7 6 Noroeste 9 Noroeste 0 1024.2 0.6 74
2017-10-26 08:00:00 17.4 5 Noroeste 11 Noroeste 0 1023.8 0.3 76
2017-10-26 07:00:00 17.3 5 Noroeste 12 Noroeste 0 1023.8 -0.1 77
2017-10-26 06:00:00 17.3 6 Noroeste 12 Noroeste 0 1023.6 -0.5 79
2017-10-26 05:00:00 17.5 5 Noroeste 9 Noroeste 0 1023.5 -0.8 80
2017-10-26 04:00:00 17.6 3 Noroeste 8 Noroeste 0 1023.9 -0.5 82
2017-10-26 03:00:00 17.8 3 Noroeste 7 Noroeste 0 1024.1 -0.3 81
2017-10-26 02:00:00 18.1 4 Noroeste 9 Noroeste 0 1024.3 0.1 80
2017-10-26 01:00:00 18.4 4 Noroeste 8 Noroeste 0 1024.4 0.4 81
2017-10-26 00:00:00 18.8 3 Noroeste 8 Oeste 0 1024.4 0.9 84